createdAt,value
2023-05-09T00:01:13.965Z,101049.31
2023-05-09T00:03:42.314Z,101064.09
2023-05-09T00:06:09.308Z,101069.41
2023-05-09T00:08:36.080Z,101077.25
2023-05-09T00:11:02.507Z,101067.53
2023-05-09T00:13:28.921Z,101071.97
2023-05-09T00:15:57.238Z,100977.22
2023-05-09T00:18:23.805Z,101044.81
2023-05-09T00:20:50.756Z,101062.44
2023-05-09T00:23:17.070Z,101043.63
2023-05-09T00:25:43.705Z,101041.34
2023-05-09T00:28:10.170Z,101042.84
2023-05-09T00:30:36.705Z,100991.06
2023-05-09T00:33:03.099Z,101006.84
2023-05-09T00:35:29.619Z,101041.25
2023-05-09T00:37:55.936Z,101035.94
2023-05-09T00:40:22.418Z,100943.06
2023-05-09T00:42:48.786Z,101062.16
2023-05-09T00:45:15.435Z,101005.72
2023-05-09T00:47:42.134Z,101037.66
2023-05-09T00:50:09.185Z,101014.09
2023-05-09T00:52:36.328Z,101040.13
2023-05-09T00:55:02.868Z,100992.50
2023-05-09T00:57:29.198Z,101016.28
2023-05-09T00:59:56.006Z,101006.88
2023-05-09T01:02:22.441Z,101023.53
2023-05-09T01:04:48.849Z,101024.22
2023-05-09T01:07:35.370Z,101030.97
2023-05-09T01:10:11.704Z,101028.59
2023-05-09T01:13:00.160Z,101027.88
2023-05-09T01:15:51.083Z,101023.94
2023-05-09T01:18:26.148Z,101010.22
2023-05-09T01:21:01.734Z,100986.63
2023-05-09T01:23:55.688Z,101006.34
2023-05-09T01:26:24.939Z,101010.19
2023-05-09T01:29:36.718Z,100986.91
2023-05-09T01:32:08.119Z,100988.78
2023-05-09T01:34:35.567Z,100963.28
2023-05-09T01:37:04.932Z,100959.34
2023-05-09T01:39:33.792Z,101001.97
2023-05-09T01:42:02.586Z,100970.47
2023-05-09T01:44:37.870Z,100982.75
2023-05-09T01:47:04.874Z,100940.75
2023-05-09T01:49:33.458Z,100933.09
2023-05-09T01:52:03.684Z,100978.84
2023-05-09T01:54:31.206Z,100967.41
2023-05-09T01:56:59.126Z,100922.50
2023-05-09T01:59:27.116Z,100939.31
2023-05-09T02:01:55.166Z,100963.66
2023-05-09T02:04:22.175Z,100967.88
2023-05-09T02:06:52.949Z,100956.56
2023-05-09T02:09:20.359Z,100976.84
2023-05-09T02:11:46.967Z,100887.66
2023-05-09T02:14:14.028Z,100901.38
2023-05-09T02:16:40.787Z,100933.88
2023-05-09T02:19:07.326Z,100921.84
2023-05-09T02:21:33.927Z,100894.38
2023-05-09T02:24:00.326Z,100964.66
2023-05-09T02:26:28.330Z,100836.50
2023-05-09T02:28:56.085Z,100955.38
2023-05-09T02:31:25.036Z,100975.13
2023-05-09T02:33:54.067Z,100946.56
2023-05-09T02:36:22.128Z,100947.50
2023-05-09T02:38:48.675Z,100951.34
2023-05-09T02:41:16.092Z,100937.75
2023-05-09T02:43:42.999Z,100950.63
2023-05-09T02:46:10.384Z,100961.16
2023-05-09T02:48:37.394Z,100936.03
2023-05-09T02:51:04.331Z,100925.44
2023-05-09T02:53:31.084Z,100938.81
2023-05-09T02:55:57.406Z,100859.63
2023-05-09T02:58:23.813Z,100921.28
2023-05-09T03:00:50.855Z,100945.31
2023-05-09T03:03:18.018Z,100925.84
2023-05-09T03:05:44.702Z,100938.75
2023-05-09T03:08:11.049Z,100944.09
2023-05-09T03:10:37.398Z,100933.22
2023-05-09T03:13:03.999Z,100940.59
2023-05-09T03:15:30.564Z,100914.03
2023-05-09T03:17:56.898Z,100908.25
2023-05-09T03:20:23.283Z,100916.63
2023-05-09T03:22:49.641Z,100933.72
2023-05-09T03:25:16.723Z,100914.25
2023-05-09T03:27:57.317Z,100892.22
2023-05-09T03:30:23.836Z,100885.34
2023-05-09T03:32:50.239Z,100843.38
2023-05-09T03:35:16.868Z,100913.53
2023-05-09T03:37:43.388Z,100893.13
2023-05-09T03:40:10.133Z,100888.63
2023-05-09T03:42:36.474Z,100798.38
2023-05-09T03:45:02.805Z,100903.78
2023-05-09T03:47:29.141Z,100890.41
2023-05-09T03:49:55.621Z,100876.97
2023-05-09T03:52:21.979Z,100889.78
2023-05-09T03:54:48.382Z,100874.84
2023-05-09T03:57:14.699Z,100876.06
2023-05-09T03:59:41.038Z,100880.75
2023-05-09T04:02:07.401Z,100861.06
2023-05-09T04:04:33.860Z,100841.56
2023-05-09T04:07:00.207Z,100873.03
2023-05-09T04:09:27.285Z,100876.78
2023-05-09T04:11:53.624Z,100851.72
2023-05-09T04:14:19.973Z,100868.06
2023-05-09T04:16:46.360Z,100799.53
2023-05-09T04:19:12.713Z,100871.16
2023-05-09T04:21:39.053Z,100876.31
2023-05-09T04:24:05.861Z,100869.78
2023-05-09T04:26:32.287Z,100857.25
2023-05-09T04:28:58.659Z,100812.38
2023-05-09T04:31:26.366Z,100874.50
2023-05-09T04:33:52.862Z,100821.53
2023-05-09T04:36:19.318Z,100870.47
2023-05-09T04:38:46.397Z,100854.59
2023-05-09T04:41:12.725Z,100863.19
2023-05-09T04:43:39.099Z,100863.03
2023-05-09T04:46:05.655Z,100766.31
2023-05-09T04:48:32.030Z,100878.63
2023-05-09T04:50:58.510Z,100857.56
2023-05-09T04:53:24.828Z,100865.13
2023-05-09T04:55:51.864Z,100803.22
2023-05-09T04:58:18.247Z,100844.72
2023-05-09T05:00:44.641Z,100755.31
2023-05-09T05:03:11.103Z,100777.28
2023-05-09T05:05:38.001Z,100824.53
2023-05-09T05:08:04.773Z,100847.50
2023-05-09T05:10:31.230Z,100770.38
2023-05-09T05:12:57.649Z,100852.13
2023-05-09T05:15:24.053Z,100783.88
2023-05-09T05:17:50.452Z,100765.88
2023-05-09T05:20:16.945Z,100754.16
2023-05-09T05:22:45.775Z,100848.66
2023-05-09T05:25:13.191Z,100735.75
2023-05-09T05:27:39.896Z,100814.72
2023-05-09T05:30:07.580Z,100774.25
2023-05-09T05:32:33.930Z,100821.44
2023-05-09T05:35:02.456Z,100837.59
2023-05-09T05:37:28.918Z,100698.84
2023-05-09T05:39:55.384Z,100732.66
2023-05-09T05:42:21.731Z,100793.38
2023-05-09T05:44:48.094Z,100801.53
2023-05-09T05:47:14.447Z,100744.19
2023-05-09T05:49:41.150Z,100804.09
2023-05-09T05:52:07.529Z,100776.91
2023-05-09T05:54:33.889Z,100775.56
2023-05-09T05:57:00.372Z,100773.06
2023-05-09T05:59:26.796Z,100729.00
2023-05-09T06:01:53.258Z,100801.97
2023-05-09T06:04:19.785Z,100811.66
2023-05-09T06:06:46.720Z,100793.97
2023-05-09T06:09:13.153Z,100738.38
2023-05-09T06:11:39.549Z,100727.91
2023-05-09T06:14:06.130Z,100705.97
2023-05-09T06:16:32.789Z,100696.53
2023-05-09T06:18:59.233Z,100786.28
2023-05-09T06:21:26.209Z,100709.81
2023-05-09T06:24:07.921Z,100755.59
2023-05-09T06:26:38.698Z,100778.56
2023-05-09T06:29:06.406Z,100774.88
2023-05-09T06:31:35.710Z,100748.06
2023-05-09T06:34:02.152Z,100742.59
2023-05-09T06:36:28.485Z,100746.81
2023-05-09T06:38:54.835Z,100740.81
2023-05-09T06:41:21.749Z,100721.66
2023-05-09T06:43:48.606Z,100736.03
2023-05-09T06:46:16.353Z,100676.97
2023-05-09T06:48:42.789Z,100682.63
2023-05-09T06:51:09.261Z,100716.22
2023-05-09T06:53:35.639Z,100628.56
2023-05-09T06:56:04.856Z,100695.59
2023-05-09T06:58:31.334Z,100645.03
2023-05-09T07:00:57.942Z,100739.03
2023-05-09T07:03:24.345Z,100736.44
2023-05-09T07:05:52.332Z,100634.06
2023-05-09T07:08:18.749Z,100712.22
2023-05-09T07:10:45.142Z,100636.13
2023-05-09T07:13:11.508Z,100701.09
2023-05-09T07:15:41.826Z,100634.06
2023-05-09T07:18:09.437Z,100665.50
2023-05-09T07:20:36.098Z,100711.97
2023-05-09T07:23:05.881Z,100711.59
2023-05-09T07:25:32.274Z,100695.84
2023-05-09T07:27:58.661Z,100665.69
2023-05-09T07:30:25.176Z,100697.41
2023-05-09T07:32:51.962Z,100689.63
2023-05-09T07:35:19.133Z,100701.28
2023-05-09T07:37:45.792Z,100605.28
2023-05-09T07:40:12.698Z,100662.56
2023-05-09T07:42:39.440Z,100684.81
2023-05-09T07:45:06.438Z,100679.97
2023-05-09T07:47:33.363Z,100682.09
2023-05-09T07:49:59.751Z,100682.41
2023-05-09T07:52:26.265Z,100658.91
2023-05-09T07:54:52.654Z,100644.03
2023-05-09T07:57:19.091Z,100646.88
2023-05-09T07:59:45.511Z,100635.66
2023-05-09T08:02:11.888Z,100652.19
2023-05-09T08:04:39.052Z,100658.88
2023-05-09T08:07:05.664Z,100627.50
2023-05-09T08:09:32.289Z,100647.78
2023-05-09T08:14:24.942Z,100563.88
2023-05-09T08:16:51.439Z,100652.28
2023-05-09T08:19:18.833Z,100521.88
2023-05-09T08:21:45.527Z,100552.25
2023-05-09T08:24:11.931Z,100549.63
2023-05-09T08:26:38.330Z,100542.41
2023-05-09T08:29:04.728Z,100618.03
2023-05-09T08:31:31.157Z,100594.13
2023-05-09T08:33:57.542Z,100588.50
2023-05-09T08:36:24.063Z,100455.00
2023-05-09T08:38:50.508Z,100546.41
2023-05-09T08:41:17.215Z,100550.78
2023-05-09T08:43:44.206Z,100499.31
2023-05-09T08:46:11.932Z,100488.91
2023-05-09T08:48:39.620Z,100597.66
2023-05-09T08:51:08.111Z,100571.06
2023-05-09T08:53:34.682Z,100495.44
2023-05-09T08:56:02.644Z,100474.84
2023-05-09T08:58:29.480Z,100450.09
2023-05-09T09:00:56.646Z,100592.56
2023-05-09T09:03:26.173Z,100594.88
2023-05-09T09:05:54.458Z,100560.59
2023-05-09T09:08:22.864Z,100516.41
2023-05-09T09:10:49.688Z,100592.25
2023-05-09T09:13:18.272Z,100553.84
2023-05-09T09:15:46.930Z,100579.59
2023-05-09T09:18:21.887Z,100570.63
2023-05-09T09:20:51.205Z,100537.81
2023-05-09T09:23:20.522Z,100534.78
2023-05-09T09:25:47.542Z,100548.28
2023-05-09T09:28:14.015Z,100551.63
2023-05-09T09:30:48.214Z,100571.22
2023-05-09T09:33:26.194Z,100534.94
2023-05-09T09:35:54.545Z,100400.88
2023-05-09T09:38:22.471Z,100437.47
2023-05-09T09:40:51.903Z,100561.47
2023-05-09T09:43:19.342Z,100539.53
2023-05-09T09:45:50.938Z,100557.31
2023-05-09T09:48:17.414Z,100463.00
2023-05-09T09:50:43.739Z,100523.97
2023-05-09T09:53:12.530Z,100527.59
2023-05-09T09:55:50.081Z,100545.47
2023-05-09T09:58:27.328Z,100506.91
2023-05-09T10:01:11.240Z,100529.03
2023-05-09T10:03:37.749Z,100535.56
2023-05-09T10:06:04.592Z,100518.53
2023-05-09T10:08:31.210Z,100438.81
2023-05-09T10:10:59.758Z,100459.69
2023-05-09T10:13:27.156Z,100390.75
2023-05-09T10:15:55.323Z,100513.25
2023-05-09T10:18:28.475Z,100492.00
2023-05-09T10:20:57.958Z,100492.16
2023-05-09T10:23:25.296Z,100431.03
2023-05-09T10:26:03.080Z,100447.75
2023-05-09T10:28:33.140Z,100489.44
2023-05-09T10:31:22.422Z,100499.84
2023-05-09T10:33:51.040Z,100497.75
2023-05-09T10:36:20.309Z,100481.31
2023-05-09T10:38:48.585Z,100468.38
2023-05-09T10:41:18.733Z,100460.59
2023-05-09T10:43:45.802Z,100465.72
2023-05-09T10:46:13.100Z,100478.56
2023-05-09T10:48:40.090Z,100480.22
2023-05-09T10:51:08.018Z,100442.09
2023-05-09T10:53:45.536Z,100477.28
2023-05-09T10:56:32.641Z,100444.44
2023-05-09T10:59:00.013Z,100433.31
2023-05-09T11:01:38.990Z,100427.56
2023-05-09T11:04:11.353Z,100450.94
2023-05-09T11:06:41.972Z,100451.66
2023-05-09T11:09:28.024Z,100445.53
2023-05-09T11:12:00.534Z,100431.63
2023-05-09T11:14:39.466Z,100402.59
2023-05-09T11:17:08.381Z,100424.63
2023-05-09T11:19:46.724Z,100443.38
2023-05-09T11:22:21.650Z,100435.31
2023-05-09T11:24:50.059Z,100337.72
2023-05-09T11:27:20.583Z,100416.03
2023-05-09T11:29:55.803Z,100319.56
2023-05-09T11:32:27.739Z,100427.91
2023-05-09T11:35:15.818Z,100435.66
2023-05-09T11:37:50.205Z,100404.13
2023-05-09T11:40:19.140Z,100422.19
2023-05-09T11:42:58.472Z,100430.75
2023-05-09T11:45:27.444Z,100431.06
2023-05-09T11:47:54.254Z,100396.03
2023-05-09T11:50:21.666Z,100402.00
2023-05-09T11:52:48.895Z,100426.88
2023-05-09T11:55:18.414Z,100309.09
2023-05-09T11:57:48.887Z,100341.94
2023-05-09T12:00:19.819Z,100306.56
2023-05-09T12:02:47.091Z,100417.69
2023-05-09T12:05:15.679Z,100299.69
2023-05-09T12:07:42.908Z,100344.50
2023-05-09T12:10:11.377Z,100399.72
2023-05-09T12:12:47.338Z,100366.38
2023-05-09T12:15:14.490Z,100404.59
2023-05-09T12:17:44.951Z,100371.63
2023-05-09T12:20:11.668Z,100297.69
2023-05-09T12:22:38.213Z,100393.31
2023-05-09T12:25:09.506Z,100326.41
2023-05-09T12:27:37.510Z,100315.13
2023-05-09T12:30:10.044Z,100393.09
2023-05-09T12:32:39.415Z,100393.28
2023-05-09T12:35:08.559Z,100307.94
2023-05-09T12:37:34.971Z,100228.38
2023-05-09T12:40:12.807Z,100392.56
2023-05-09T12:42:42.918Z,100364.38
2023-05-09T12:45:10.183Z,100308.59
2023-05-09T12:47:38.997Z,100369.31
2023-05-09T12:50:07.367Z,100242.19
2023-05-09T12:52:46.913Z,100385.75
2023-05-09T12:55:25.202Z,100362.81
2023-05-09T12:58:00.568Z,100306.75
2023-05-09T13:00:30.616Z,100368.53
2023-05-09T13:02:57.146Z,100316.91
2023-05-09T13:05:24.256Z,100364.56
2023-05-09T13:07:52.523Z,100372.69
2023-05-09T13:10:23.556Z,100339.44
2023-05-09T13:12:51.253Z,100361.66
2023-05-09T13:15:21.674Z,100259.03
2023-05-09T13:17:49.491Z,100238.91
2023-05-09T13:20:17.091Z,100344.69
2023-05-09T13:22:44.739Z,100299.47
2023-05-09T13:25:12.019Z,100339.84
2023-05-09T13:27:38.612Z,100275.25
2023-05-09T13:30:07.744Z,100166.88
2023-05-09T13:32:35.070Z,100280.69
2023-05-09T13:35:01.472Z,100330.31
2023-05-09T13:37:28.222Z,100270.06
2023-05-09T13:40:00.892Z,100248.84
2023-05-09T13:42:27.907Z,100329.03
2023-05-09T13:44:54.322Z,100217.22
2023-05-09T13:47:21.019Z,100279.06
2023-05-09T13:49:47.426Z,100194.44
2023-05-09T13:52:16.041Z,100192.31
2023-05-09T13:54:42.597Z,100267.59
2023-05-09T13:57:09.036Z,100161.44
2023-05-09T13:59:35.492Z,100179.19
2023-05-09T14:02:02.124Z,100208.38
2023-05-09T14:04:32.582Z,100323.81
2023-05-09T14:07:00.059Z,100255.78
2023-05-09T14:09:28.331Z,100320.78
2023-05-09T14:12:02.676Z,100326.09
2023-05-09T14:14:29.055Z,100318.81
2023-05-09T14:16:59.309Z,100291.00
2023-05-09T14:19:27.095Z,100267.75
2023-05-09T14:21:53.613Z,100175.94
2023-05-09T14:24:30.040Z,100128.00
2023-05-09T14:26:57.450Z,100209.31
2023-05-09T14:29:29.569Z,100149.06
2023-05-09T14:31:56.161Z,100299.63
2023-05-09T14:34:22.869Z,100261.28
2023-05-09T14:36:50.292Z,100159.66
2023-05-09T14:39:22.109Z,100228.66
2023-05-09T14:41:49.957Z,100256.63
2023-05-09T14:44:17.267Z,100184.78
2023-05-09T14:46:43.867Z,100202.25
2023-05-09T14:49:10.348Z,100202.72
2023-05-09T14:51:40.286Z,100213.97
2023-05-09T14:54:06.804Z,100205.25
2023-05-09T14:56:33.369Z,100073.56
2023-05-09T14:59:00.069Z,100096.56
2023-05-09T15:01:26.613Z,100089.63
2023-05-09T15:03:53.123Z,100162.41
2023-05-09T15:06:19.518Z,100210.00
2023-05-09T15:08:46.141Z,100134.19
2023-05-09T15:11:12.616Z,100107.47
2023-05-09T15:13:39.093Z,100122.66
2023-05-09T15:16:08.688Z,100125.88
2023-05-09T15:18:37.436Z,100185.75
2023-05-09T15:21:04.195Z,100256.41
2023-05-09T15:23:30.835Z,100138.09
2023-05-09T15:25:57.537Z,100170.22
2023-05-09T15:28:24.228Z,100191.34
2023-05-09T15:30:51.049Z,100206.72
2023-05-09T15:33:17.776Z,100167.59
2023-05-09T15:35:45.122Z,100164.03
2023-05-09T15:38:15.464Z,100093.91
2023-05-09T15:40:42.214Z,100108.13
2023-05-09T15:43:08.723Z,100101.13
2023-05-09T15:45:36.905Z,100221.69
2023-05-09T15:48:03.978Z,100167.22
2023-05-09T15:50:30.322Z,100228.31
2023-05-09T15:52:57.054Z,100215.69
2023-05-09T15:55:23.476Z,100064.75
2023-05-09T15:57:51.379Z,100097.75
2023-05-09T16:00:18.291Z,100083.75
2023-05-09T16:02:44.925Z,100077.69
2023-05-09T16:05:11.400Z,100218.31
2023-05-09T16:07:37.855Z,100133.28
2023-05-09T16:10:05.184Z,100220.44
2023-05-09T16:12:32.803Z,100202.25
2023-05-09T16:14:59.456Z,100210.91
2023-05-09T16:17:25.981Z,100159.13
2023-05-09T16:19:52.407Z,100200.50
2023-05-09T16:22:19.194Z,100078.34
2023-05-09T16:24:46.356Z,100189.75
2023-05-09T16:27:14.324Z,100184.97
2023-05-09T16:29:41.412Z,100198.31
2023-05-09T16:32:08.672Z,100178.47
2023-05-09T16:34:36.554Z,100196.66
2023-05-09T16:37:03.772Z,100091.25
2023-05-09T16:39:35.535Z,100159.97
2023-05-09T16:42:07.599Z,100178.63
2023-05-09T16:44:34.088Z,100100.47
2023-05-09T16:47:03.795Z,100103.97
2023-05-09T16:49:30.269Z,100147.66
2023-05-09T16:51:58.831Z,100087.00
2023-05-09T16:54:25.409Z,100032.44
2023-05-09T16:56:51.785Z,100081.56
2023-05-09T16:59:18.604Z,100146.25
2023-05-09T17:01:45.125Z,100117.19
2023-05-09T17:04:11.667Z,100173.56
2023-05-09T17:06:38.243Z,100166.63
2023-05-09T17:09:04.705Z,100173.00
2023-05-09T17:11:31.150Z,100124.38
2023-05-09T17:13:57.510Z,100174.81
2023-05-09T17:16:23.878Z,100091.94
2023-05-09T17:18:51.911Z,100158.34
2023-05-09T17:21:20.110Z,100097.75
2023-05-09T17:23:46.561Z,100124.38
2023-05-09T17:26:12.939Z,100098.09
2023-05-09T17:28:39.376Z,100156.81
2023-05-09T17:31:05.894Z,100086.69
2023-05-09T17:33:32.361Z,100118.06
2023-05-09T17:35:59.958Z,100142.06
2023-05-09T17:38:26.364Z,100142.81
2023-05-09T17:40:52.704Z,100163.47
2023-05-09T17:43:19.204Z,100155.72
2023-05-09T17:45:46.233Z,100083.97
2023-05-09T17:48:13.427Z,100093.22
2023-05-09T17:50:39.849Z,100140.03
2023-05-09T17:53:08.903Z,100143.59
2023-05-09T17:55:35.669Z,100064.28
2023-05-09T17:58:04.433Z,100030.72
2023-05-09T18:00:30.942Z,100026.09
2023-05-09T18:03:01.494Z,100154.03
2023-05-09T18:05:28.027Z,100123.47
2023-05-09T18:07:54.431Z,100069.84
2023-05-09T18:10:23.407Z,100155.19
2023-05-09T18:12:49.902Z,100140.78
2023-05-09T18:15:16.306Z,100167.63
2023-05-09T18:17:42.894Z,100146.78
2023-05-09T18:20:09.837Z,100157.34
2023-05-09T18:22:37.314Z,100165.91
2023-05-09T18:25:03.968Z,100022.44
2023-05-09T18:27:30.418Z,100095.72
2023-05-09T18:29:56.804Z,100128.78
2023-05-09T18:32:23.240Z,100092.03
2023-05-09T18:34:50.274Z,100167.88
2023-05-09T18:37:17.042Z,100143.81
2023-05-09T18:39:45.022Z,100140.59
2023-05-09T18:42:16.175Z,100166.13
2023-05-09T18:44:43.072Z,100097.88
2023-05-09T18:47:09.547Z,100157.72
2023-05-09T18:49:36.222Z,100168.28
2023-05-09T18:52:03.387Z,100160.75
2023-05-09T18:54:30.296Z,100087.47
2023-05-09T18:56:57.034Z,100169.91
2023-05-09T18:59:24.554Z,100070.25
2023-05-09T19:01:50.954Z,100169.03
2023-05-09T19:04:19.990Z,100119.00
2023-05-09T19:06:47.226Z,100040.13
2023-05-09T19:09:13.665Z,100123.09
2023-05-09T19:11:40.277Z,100093.22
2023-05-09T19:14:07.129Z,100179.03
2023-05-09T19:16:33.687Z,100143.88
2023-05-09T19:19:00.865Z,100170.97
2023-05-09T19:21:28.249Z,100086.69
2023-05-09T19:23:54.879Z,100060.22
2023-05-09T19:26:22.080Z,100084.19
2023-05-09T19:28:48.555Z,100067.75
2023-05-09T19:31:15.973Z,100159.66
2023-05-09T19:33:47.501Z,100130.41
2023-05-09T19:36:19.336Z,100080.09
2023-05-09T19:38:48.024Z,100166.41
2023-05-09T19:41:14.437Z,100084.75
2023-05-09T19:43:40.915Z,100171.78
2023-05-09T19:46:09.886Z,100141.66
2023-05-09T19:48:36.377Z,100171.41
2023-05-09T19:51:03.016Z,100154.03
2023-05-09T19:53:29.413Z,100177.22
2023-05-09T19:55:55.812Z,100161.75
2023-05-09T19:58:22.314Z,100072.75
2023-05-09T20:00:48.733Z,100068.19
2023-05-09T20:03:17.442Z,100099.91
2023-05-09T20:05:45.078Z,100153.63
2023-05-09T20:08:11.591Z,100176.81
2023-05-09T20:10:38.095Z,100166.13
2023-05-09T20:13:04.712Z,100177.56
2023-05-09T20:15:33.773Z,100168.88
2023-05-09T20:18:03.476Z,100173.81
2023-05-09T20:20:32.153Z,100161.00
2023-05-09T20:22:58.630Z,100168.13
2023-05-09T20:25:25.188Z,100051.25
2023-05-09T20:27:51.761Z,100141.66
2023-05-09T20:30:18.151Z,100100.84
2023-05-09T20:32:44.621Z,100160.88
2023-05-09T20:35:11.172Z,100097.38
2023-05-09T20:37:37.663Z,100153.91
2023-05-09T20:40:08.459Z,100037.31
2023-05-09T20:42:35.089Z,100095.66
2023-05-09T20:45:02.085Z,100079.13
2023-05-09T20:47:28.711Z,100148.06
2023-05-09T20:49:56.239Z,100156.63
2023-05-09T20:52:24.569Z,100105.66
2023-05-09T20:54:50.887Z,100117.44
2023-05-09T20:57:17.246Z,100110.00
2023-05-09T20:59:44.204Z,100157.03
2023-05-09T21:02:11.138Z,100118.38
2023-05-09T21:04:37.686Z,100162.31
2023-05-09T21:07:04.047Z,100153.75
2023-05-09T21:09:30.436Z,100165.88
2023-05-09T21:11:57.053Z,100176.28
2023-05-09T21:14:23.386Z,100149.41
2023-05-09T21:16:51.530Z,100115.56
2023-05-09T21:19:17.923Z,100163.09
2023-05-09T21:21:44.324Z,100080.81
2023-05-09T21:24:10.736Z,100146.66
2023-05-09T21:26:37.297Z,100158.94
2023-05-09T21:29:03.708Z,100128.13
2023-05-09T21:31:30.207Z,100118.75
2023-05-09T21:33:57.677Z,100090.38
2023-05-09T21:36:24.073Z,100139.44
2023-05-09T21:38:50.806Z,100162.88
2023-05-09T21:41:17.275Z,100168.41
2023-05-09T21:43:43.620Z,100169.00
2023-05-09T21:46:10.190Z,100165.72
2023-05-09T21:48:36.709Z,100093.56
2023-05-09T21:51:03.669Z,100095.38
2023-05-09T21:53:30.166Z,100119.63
2023-05-09T21:55:56.596Z,100117.31
2023-05-09T21:58:22.982Z,100041.16
2023-05-09T22:00:49.465Z,100159.72
2023-05-09T22:03:15.933Z,100160.19
2023-05-09T22:05:42.376Z,100082.13
2023-05-09T22:08:09.215Z,100085.25
2023-05-09T22:10:37.678Z,100167.28
2023-05-09T22:13:04.165Z,100018.25
2023-05-09T22:15:30.618Z,100143.59
2023-05-09T22:17:59.823Z,100137.66
2023-05-09T22:20:26.328Z,100119.31
2023-05-09T22:22:52.686Z,100086.75
2023-05-09T22:25:19.450Z,100139.09
2023-05-09T22:27:45.781Z,100117.44
2023-05-09T22:30:12.497Z,100118.03
2023-05-09T22:32:39.366Z,100106.75
2023-05-09T22:35:06.193Z,100107.63
2023-05-09T22:37:32.607Z,100172.28
2023-05-09T22:40:01.361Z,100116.47
2023-05-09T22:42:29.251Z,100115.47
2023-05-09T22:44:55.791Z,100137.66
2023-05-09T22:47:22.237Z,100161.91
2023-05-09T22:49:49.758Z,100164.25
2023-05-09T22:52:16.206Z,100161.00
2023-05-09T22:54:42.679Z,100155.16
2023-05-09T22:57:09.548Z,100167.97
2023-05-09T22:59:36.897Z,100034.41
2023-05-09T23:02:03.836Z,100082.13
2023-05-09T23:04:30.297Z,100082.88
2023-05-09T23:06:56.730Z,100161.28
2023-05-09T23:09:23.265Z,100062.91
2023-05-09T23:11:49.762Z,100067.78
2023-05-09T23:14:16.133Z,100112.69
2023-05-09T23:16:42.700Z,100147.31
2023-05-09T23:19:10.304Z,100074.19
2023-05-09T23:21:36.763Z,100145.75
2023-05-09T23:24:03.605Z,100121.00
2023-05-09T23:26:29.964Z,100164.84
2023-05-09T23:28:56.571Z,100074.44
2023-05-09T23:31:23.067Z,100173.28
2023-05-09T23:33:49.598Z,100098.34
2023-05-09T23:36:16.060Z,100101.38
2023-05-09T23:38:42.455Z,100043.56
2023-05-09T23:41:08.837Z,100069.19
2023-05-09T23:43:35.187Z,100166.38
2023-05-09T23:46:01.794Z,100153.34
2023-05-09T23:48:28.172Z,100154.03
2023-05-09T23:50:54.535Z,100093.66
2023-05-09T23:53:21.011Z,100152.34
2023-05-09T23:55:47.368Z,100107.63
2023-05-09T23:58:14.155Z,100070.03
